sensor_id;sensor_type;location;lat;lon;timestamp;temperature;humidity
25732;DHT22;13585;50.864;4.406;2022-09-09T00:02:03;27.60;52.10
25732;DHT22;13585;50.864;4.406;2022-09-09T00:04:40;27.60;52.00
25732;DHT22;13585;50.864;4.406;2022-09-09T00:10:05;27.60;52.10
25732;DHT22;13585;50.864;4.406;2022-09-09T00:18:31;27.60;52.00
25732;DHT22;13585;50.864;4.406;2022-09-09T00:21:11;27.50;52.00
25732;DHT22;13585;50.864;4.406;2022-09-09T00:23:51;27.50;51.90
25732;DHT22;13585;50.864;4.406;2022-09-09T00:26:45;27.50;51.90
25732;DHT22;13585;50.864;4.406;2022-09-09T00:32:28;27.60;52.10
25732;DHT22;13585;50.864;4.406;2022-09-09T00:34:59;27.50;51.90
25732;DHT22;13585;50.864;4.406;2022-09-09T00:37:26;27.60;52.00
25732;DHT22;13585;50.864;4.406;2022-09-09T00:39:56;27.50;52.00
25732;DHT22;13585;50.864;4.406;2022-09-09T00:42:43;27.60;52.00
25732;DHT22;13585;50.864;4.406;2022-09-09T00:45:52;27.50;52.00
25732;DHT22;13585;50.864;4.406;2022-09-09T00:48:22;27.50;52.00
25732;DHT22;13585;50.864;4.406;2022-09-09T00:50:59;27.50;51.90
25732;DHT22;13585;50.864;4.406;2022-09-09T00:53:35;27.50;52.00
25732;DHT22;13585;50.864;4.406;2022-09-09T00:56:12;27.60;52.00
25732;DHT22;13585;50.864;4.406;2022-09-09T00:58:43;27.50;51.90
25732;DHT22;13585;50.864;4.406;2022-09-09T01:01:13;27.50;51.90
25732;DHT22;13585;50.864;4.406;2022-09-09T01:03:57;27.60;52.00
25732;DHT22;13585;50.864;4.406;2022-09-09T01:06:34;27.50;52.60
25732;DHT22;13585;50.864;4.406;2022-09-09T01:11:52;27.50;52.00
25732;DHT22;13585;50.864;4.406;2022-09-09T01:17:15;27.50;51.90
25732;DHT22;13585;50.864;4.406;2022-09-09T01:25:22;27.50;51.90
25732;DHT22;13585;50.864;4.406;2022-09-09T01:27:59;27.50;51.90
25732;DHT22;13585;50.864;4.406;2022-09-09T01:30:26;27.50;51.90
25732;DHT22;13585;50.864;4.406;2022-09-09T01:32:57;27.50;51.90
25732;DHT22;13585;50.864;4.406;2022-09-09T01:37:57;27.50;51.90
25732;DHT22;13585;50.864;4.406;2022-09-09T01:40:24;27.50;51.90
25732;DHT22;13585;50.864;4.406;2022-09-09T01:42:50;27.50;51.90
25732;DHT22;13585;50.864;4.406;2022-09-09T01:45:16;27.50;51.90
25732;DHT22;13585;50.864;4.406;2022-09-09T01:47:43;27.50;51.90
25732;DHT22;13585;50.864;4.406;2022-09-09T01:50:10;27.50;51.90
25732;DHT22;13585;50.864;4.406;2022-09-09T01:52:37;27.50;51.90
25732;DHT22;13585;50.864;4.406;2022-09-09T01:55:04;27.50;51.90
25732;DHT22;13585;50.864;4.406;2022-09-09T01:58:08;27.50;51.80
25732;DHT22;13585;50.864;4.406;2022-09-09T02:00:50;27.50;51.90
25732;DHT22;13585;50.864;4.406;2022-09-09T02:03:28;27.40;51.80
25732;DHT22;13585;50.864;4.406;2022-09-09T02:06:25;27.50;51.80
25732;DHT22;13585;50.864;4.406;2022-09-09T02:08:59;27.40;51.80
25732;DHT22;13585;50.864;4.406;2022-09-09T02:11:27;27.40;51.80
25732;DHT22;13585;50.864;4.406;2022-09-09T02:14:00;27.50;51.80
25732;DHT22;13585;50.864;4.406;2022-09-09T02:16:32;27.50;51.90
25732;DHT22;13585;50.864;4.406;2022-09-09T02:21:52;27.40;51.80
25732;DHT22;13585;50.864;4.406;2022-09-09T02:24:19;27.50;51.80
25732;DHT22;13585;50.864;4.406;2022-09-09T02:26:52;27.50;51.80
25732;DHT22;13585;50.864;4.406;2022-09-09T02:29:38;27.40;51.70
25732;DHT22;13585;50.864;4.406;2022-09-09T02:32:10;27.50;51.90
25732;DHT22;13585;50.864;4.406;2022-09-09T02:34:40;27.50;51.80
25732;DHT22;13585;50.864;4.406;2022-09-09T02:37:08;27.50;51.80
25732;DHT22;13585;50.864;4.406;2022-09-09T02:39:34;27.50;51.80
25732;DHT22;13585;50.864;4.406;2022-09-09T02:42:00;27.50;51.80
25732;DHT22;13585;50.864;4.406;2022-09-09T02:44:26;27.50;51.90
25732;DHT22;13585;50.864;4.406;2022-09-09T02:47:10;27.50;51.80
25732;DHT22;13585;50.864;4.406;2022-09-09T02:50:08;27.50;51.80
25732;DHT22;13585;50.864;4.406;2022-09-09T02:58:10;27.40;51.70
25732;DHT22;13585;50.864;4.406;2022-09-09T03:00:38;27.50;51.70
25732;DHT22;13585;50.864;4.406;2022-09-09T03:03:06;27.40;51.70
25732;DHT22;13585;50.864;4.406;2022-09-09T03:05:32;27.40;51.70
25732;DHT22;13585;50.864;4.406;2022-09-09T03:07:58;27.50;51.70
25732;DHT22;13585;50.864;4.406;2022-09-09T03:10:24;27.40;51.70
25732;DHT22;13585;50.864;4.406;2022-09-09T03:12:49;27.40;51.70
25732;DHT22;13585;50.864;4.406;2022-09-09T03:15:16;27.50;51.70
25732;DHT22;13585;50.864;4.406;2022-09-09T03:17:42;27.40;51.70
25732;DHT22;13585;50.864;4.406;2022-09-09T03:20:08;27.40;51.70
25732;DHT22;13585;50.864;4.406;2022-09-09T03:22:34;27.40;51.70
25732;DHT22;13585;50.864;4.406;2022-09-09T03:25:00;27.40;51.70
25732;DHT22;13585;50.864;4.406;2022-09-09T03:27:28;27.40;51.70
25732;DHT22;13585;50.864;4.406;2022-09-09T03:29:54;27.40;51.70
25732;DHT22;13585;50.864;4.406;2022-09-09T03:32:21;27.40;51.70
25732;DHT22;13585;50.864;4.406;2022-09-09T03:34:48;27.40;51.70
25732;DHT22;13585;50.864;4.406;2022-09-09T03:37:16;27.40;51.60
25732;DHT22;13585;50.864;4.406;2022-09-09T03:39:43;27.40;51.70
25732;DHT22;13585;50.864;4.406;2022-09-09T03:42:12;27.40;51.60
25732;DHT22;13585;50.864;4.406;2022-09-09T03:44:39;27.40;51.60
25732;DHT22;13585;50.864;4.406;2022-09-09T03:47:06;27.40;51.60
25732;DHT22;13585;50.864;4.406;2022-09-09T03:49:32;27.40;51.70
25732;DHT22;13585;50.864;4.406;2022-09-09T03:51:57;27.40;51.60
25732;DHT22;13585;50.864;4.406;2022-09-09T03:54:25;27.40;51.70
25732;DHT22;13585;50.864;4.406;2022-09-09T03:56:51;27.40;51.60
25732;DHT22;13585;50.864;4.406;2022-09-09T03:59:17;27.40;51.60
25732;DHT22;13585;50.864;4.406;2022-09-09T04:01:42;27.40;51.60
25732;DHT22;13585;50.864;4.406;2022-09-09T04:04:09;27.40;51.60
25732;DHT22;13585;50.864;4.406;2022-09-09T04:06:36;27.40;51.60
25732;DHT22;13585;50.864;4.406;2022-09-09T04:09:01;27.40;51.60
25732;DHT22;13585;50.864;4.406;2022-09-09T04:11:28;27.40;51.60
25732;DHT22;13585;50.864;4.406;2022-09-09T04:13:54;27.30;51.50
25732;DHT22;13585;50.864;4.406;2022-09-09T04:16:20;27.40;51.60
25732;DHT22;13585;50.864;4.406;2022-09-09T04:18:46;27.40;51.60
25732;DHT22;13585;50.864;4.406;2022-09-09T04:21:12;27.30;51.50
25732;DHT22;13585;50.864;4.406;2022-09-09T04:23:39;27.40;51.50
25732;DHT22;13585;50.864;4.406;2022-09-09T04:26:05;27.40;51.50
25732;DHT22;13585;50.864;4.406;2022-09-09T04:28:33;27.30;51.50
25732;DHT22;13585;50.864;4.406;2022-09-09T04:31:07;27.30;51.50
25732;DHT22;13585;50.864;4.406;2022-09-09T04:33:34;27.30;51.50
25732;DHT22;13585;50.864;4.406;2022-09-09T04:36:00;27.30;51.50
25732;DHT22;13585;50.864;4.406;2022-09-09T04:38:26;27.30;51.50
25732;DHT22;13585;50.864;4.406;2022-09-09T04:40:52;27.30;51.50
25732;DHT22;13585;50.864;4.406;2022-09-09T04:43:20;27.30;51.50
25732;DHT22;13585;50.864;4.406;2022-09-09T04:45:50;27.30;51.50
25732;DHT22;13585;50.864;4.406;2022-09-09T04:48:16;27.30;51.50
25732;DHT22;13585;50.864;4.406;2022-09-09T04:50:42;27.30;51.40
25732;DHT22;13585;50.864;4.406;2022-09-09T04:53:08;27.30;51.40
25732;DHT22;13585;50.864;4.406;2022-09-09T04:55:34;27.30;51.40
25732;DHT22;13585;50.864;4.406;2022-09-09T04:58:05;27.30;51.50
25732;DHT22;13585;50.864;4.406;2022-09-09T05:00:31;27.30;51.50
25732;DHT22;13585;50.864;4.406;2022-09-09T05:03:06;27.30;51.50
25732;DHT22;13585;50.864;4.406;2022-09-09T05:05:39;27.30;51.50
25732;DHT22;13585;50.864;4.406;2022-09-09T05:08:27;27.30;51.50
25732;DHT22;13585;50.864;4.406;2022-09-09T05:10:52;27.30;51.50
25732;DHT22;13585;50.864;4.406;2022-09-09T05:13:18;27.30;51.40
25732;DHT22;13585;50.864;4.406;2022-09-09T05:15:52;27.30;51.40
25732;DHT22;13585;50.864;4.406;2022-09-09T05:18:18;27.30;51.50
25732;DHT22;13585;50.864;4.406;2022-09-09T05:20:44;27.30;51.40
25732;DHT22;13585;50.864;4.406;2022-09-09T05:23:10;27.30;51.40
25732;DHT22;13585;50.864;4.406;2022-09-09T05:25:39;27.30;51.40
25732;DHT22;13585;50.864;4.406;2022-09-09T05:28:06;27.30;51.40
25732;DHT22;13585;50.864;4.406;2022-09-09T05:30:33;27.30;51.40
25732;DHT22;13585;50.864;4.406;2022-09-09T05:32:59;27.30;51.40
25732;DHT22;13585;50.864;4.406;2022-09-09T05:35:27;27.20;51.30
25732;DHT22;13585;50.864;4.406;2022-09-09T05:37:52;27.30;51.40
25732;DHT22;13585;50.864;4.406;2022-09-09T05:40:18;27.30;51.40
25732;DHT22;13585;50.864;4.406;2022-09-09T05:42:44;27.30;51.40
25732;DHT22;13585;50.864;4.406;2022-09-09T05:45:10;27.30;51.30
25732;DHT22;13585;50.864;4.406;2022-09-09T05:47:36;27.30;51.30
25732;DHT22;13585;50.864;4.406;2022-09-09T05:50:03;27.30;51.30
25732;DHT22;13585;50.864;4.406;2022-09-09T05:52:29;27.20;51.30
25732;DHT22;13585;50.864;4.406;2022-09-09T05:54:55;27.30;51.30
25732;DHT22;13585;50.864;4.406;2022-09-09T05:57:22;27.30;51.30
25732;DHT22;13585;50.864;4.406;2022-09-09T05:59:48;27.30;51.30
25732;DHT22;13585;50.864;4.406;2022-09-09T06:02:15;27.30;51.20
25732;DHT22;13585;50.864;4.406;2022-09-09T06:04:40;27.20;51.20
25732;DHT22;13585;50.864;4.406;2022-09-09T06:07:07;27.20;51.20
25732;DHT22;13585;50.864;4.406;2022-09-09T06:09:33;27.20;51.20
25732;DHT22;13585;50.864;4.406;2022-09-09T06:11:59;27.20;51.20
25732;DHT22;13585;50.864;4.406;2022-09-09T06:14:24;27.30;51.30
25732;DHT22;13585;50.864;4.406;2022-09-09T06:16:53;27.30;51.30
25732;DHT22;13585;50.864;4.406;2022-09-09T06:19:19;27.30;51.30
25732;DHT22;13585;50.864;4.406;2022-09-09T06:21:45;27.20;51.30
25732;DHT22;13585;50.864;4.406;2022-09-09T06:24:13;27.20;51.30
25732;DHT22;13585;50.864;4.406;2022-09-09T06:26:43;27.30;51.40
25732;DHT22;13585;50.864;4.406;2022-09-09T06:29:12;27.30;51.40
25732;DHT22;13585;50.864;4.406;2022-09-09T06:31:37;27.30;51.40
25732;DHT22;13585;50.864;4.406;2022-09-09T06:34:07;27.30;51.40
25732;DHT22;13585;50.864;4.406;2022-09-09T06:36:36;27.30;51.50
25732;DHT22;13585;50.864;4.406;2022-09-09T06:39:03;27.30;51.50
25732;DHT22;13585;50.864;4.406;2022-09-09T06:41:31;27.20;51.40
25732;DHT22;13585;50.864;4.406;2022-09-09T06:43:57;27.30;51.50
25732;DHT22;13585;50.864;4.406;2022-09-09T06:46:25;27.30;51.50
25732;DHT22;13585;50.864;4.406;2022-09-09T06:48:56;27.30;51.60
25732;DHT22;13585;50.864;4.406;2022-09-09T06:51:23;27.30;51.60
25732;DHT22;13585;50.864;4.406;2022-09-09T06:53:54;27.30;51.60
25732;DHT22;13585;50.864;4.406;2022-09-09T06:56:21;27.30;51.60
25732;DHT22;13585;50.864;4.406;2022-09-09T07:01:46;27.40;51.60
25732;DHT22;13585;50.864;4.406;2022-09-09T07:04:13;27.40;51.50
25732;DHT22;13585;50.864;4.406;2022-09-09T07:06:41;27.30;51.40
25732;DHT22;13585;50.864;4.406;2022-09-09T07:09:10;27.30;51.40
25732;DHT22;13585;50.864;4.406;2022-09-09T07:11:44;27.30;51.30
25732;DHT22;13585;50.864;4.406;2022-09-09T07:14:11;27.30;51.50
25732;DHT22;13585;50.864;4.406;2022-09-09T07:16:44;27.30;51.20
25732;DHT22;13585;50.864;4.406;2022-09-09T07:19:11;27.30;51.20
25732;DHT22;13585;50.864;4.406;2022-09-09T07:21:37;27.40;51.30
25732;DHT22;13585;50.864;4.406;2022-09-09T07:24:03;27.30;51.10
25732;DHT22;13585;50.864;4.406;2022-09-09T07:26:33;27.30;51.20
25732;DHT22;13585;50.864;4.406;2022-09-09T07:28:59;27.30;51.10
25732;DHT22;13585;50.864;4.406;2022-09-09T07:31:28;27.30;51.10
25732;DHT22;13585;50.864;4.406;2022-09-09T07:33:56;27.30;51.10
25732;DHT22;13585;50.864;4.406;2022-09-09T07:36:24;27.20;51.00
25732;DHT22;13585;50.864;4.406;2022-09-09T07:38:56;27.30;51.10
25732;DHT22;13585;50.864;4.406;2022-09-09T07:41:23;27.30;51.10
25732;DHT22;13585;50.864;4.406;2022-09-09T07:43:50;27.30;51.00
25732;DHT22;13585;50.864;4.406;2022-09-09T07:46:18;27.30;51.00
25732;DHT22;13585;50.864;4.406;2022-09-09T07:48:52;27.30;51.00
25732;DHT22;13585;50.864;4.406;2022-09-09T07:51:24;27.30;51.00
25732;DHT22;13585;50.864;4.406;2022-09-09T07:53:59;27.30;50.90
25732;DHT22;13585;50.864;4.406;2022-09-09T07:56:28;27.30;50.90
25732;DHT22;13585;50.864;4.406;2022-09-09T07:58:55;27.30;51.00
25732;DHT22;13585;50.864;4.406;2022-09-09T08:01:41;27.30;51.00
25732;DHT22;13585;50.864;4.406;2022-09-09T08:04:11;27.30;51.10
25732;DHT22;13585;50.864;4.406;2022-09-09T08:06:42;27.30;50.90
25732;DHT22;13585;50.864;4.406;2022-09-09T08:09:11;27.30;51.00
25732;DHT22;13585;50.864;4.406;2022-09-09T08:11:37;27.30;51.10
25732;DHT22;13585;50.864;4.406;2022-09-09T08:14:04;27.30;51.00
25732;DHT22;13585;50.864;4.406;2022-09-09T08:16:32;27.30;51.70
25732;DHT22;13585;50.864;4.406;2022-09-09T08:18:58;27.30;51.00
25732;DHT22;13585;50.864;4.406;2022-09-09T08:21:27;27.20;50.90
25732;DHT22;13585;50.864;4.406;2022-09-09T08:23:54;27.30;51.00
25732;DHT22;13585;50.864;4.406;2022-09-09T08:26:37;27.20;50.90
25732;DHT22;13585;50.864;4.406;2022-09-09T08:29:06;27.20;51.00
25732;DHT22;13585;50.864;4.406;2022-09-09T08:33:59;27.30;51.10
25732;DHT22;13585;50.864;4.406;2022-09-09T08:36:27;27.30;51.10
25732;DHT22;13585;50.864;4.406;2022-09-09T08:38:54;27.30;51.20
25732;DHT22;13585;50.864;4.406;2022-09-09T08:44:37;27.20;51.30
25732;DHT22;13585;50.864;4.406;2022-09-09T08:50:19;27.30;51.30
25732;DHT22;13585;50.864;4.406;2022-09-09T08:55:51;27.30;51.40
25732;DHT22;13585;50.864;4.406;2022-09-09T08:58:31;27.30;51.40
25732;DHT22;13585;50.864;4.406;2022-09-09T09:09:01;27.30;51.50
25732;DHT22;13585;50.864;4.406;2022-09-09T09:11:52;27.30;51.40
25732;DHT22;13585;50.864;4.406;2022-09-09T09:14:24;27.20;51.40
25732;DHT22;13585;50.864;4.406;2022-09-09T09:17:18;27.30;51.50
25732;DHT22;13585;50.864;4.406;2022-09-09T09:19:46;27.20;51.50
25732;DHT22;13585;50.864;4.406;2022-09-09T09:25:23;27.20;51.50
25732;DHT22;13585;50.864;4.406;2022-09-09T09:28:07;27.30;51.60
25732;DHT22;13585;50.864;4.406;2022-09-09T09:30:59;27.20;51.50
25732;DHT22;13585;50.864;4.406;2022-09-09T09:36:09;27.20;51.50
25732;DHT22;13585;50.864;4.406;2022-09-09T09:38:36;27.20;51.50
25732;DHT22;13585;50.864;4.406;2022-09-09T09:41:03;27.20;51.50
25732;DHT22;13585;50.864;4.406;2022-09-09T09:43:33;27.30;51.60
25732;DHT22;13585;50.864;4.406;2022-09-09T09:46:00;27.20;51.60
25732;DHT22;13585;50.864;4.406;2022-09-09T09:48:27;27.30;51.70
25732;DHT22;13585;50.864;4.406;2022-09-09T09:51:22;27.20;51.60
25732;DHT22;13585;50.864;4.406;2022-09-09T09:54:28;27.20;51.80
25732;DHT22;13585;50.864;4.406;2022-09-09T09:57:11;27.20;51.70
25732;DHT22;13585;50.864;4.406;2022-09-09T10:00:13;27.20;51.80
25732;DHT22;13585;50.864;4.406;2022-09-09T10:02:41;27.20;51.80
25732;DHT22;13585;50.864;4.406;2022-09-09T10:07:45;27.20;51.90
25732;DHT22;13585;50.864;4.406;2022-09-09T10:10:23;27.20;51.90
25732;DHT22;13585;50.864;4.406;2022-09-09T10:13:13;27.20;51.90
25732;DHT22;13585;50.864;4.406;2022-09-09T10:18:45;27.20;51.80
25732;DHT22;13585;50.864;4.406;2022-09-09T10:24:07;27.10;51.80
25732;DHT22;13585;50.864;4.406;2022-09-09T10:29:32;27.10;51.90
25732;DHT22;13585;50.864;4.406;2022-09-09T10:32:09;27.20;52.00
25732;DHT22;13585;50.864;4.406;2022-09-09T10:40:32;27.10;51.80
25732;DHT22;13585;50.864;4.406;2022-09-09T10:43:03;27.10;51.80
25732;DHT22;13585;50.864;4.406;2022-09-09T10:51:39;27.20;51.70
25732;DHT22;13585;50.864;4.406;2022-09-09T10:54:31;27.20;51.80
25732;DHT22;13585;50.864;4.406;2022-09-09T10:57:09;27.20;51.80
25732;DHT22;13585;50.864;4.406;2022-09-09T10:59:48;27.20;51.80
25732;DHT22;13585;50.864;4.406;2022-09-09T11:02:33;27.20;51.90
25732;DHT22;13585;50.864;4.406;2022-09-09T11:05:03;27.20;51.90
25732;DHT22;13585;50.864;4.406;2022-09-09T11:07:39;27.20;51.80
25732;DHT22;13585;50.864;4.406;2022-09-09T11:10:23;27.30;51.80
25732;DHT22;13585;50.864;4.406;2022-09-09T11:13:05;27.30;51.90
25732;DHT22;13585;50.864;4.406;2022-09-09T11:15:39;27.30;52.10
25732;DHT22;13585;50.864;4.406;2022-09-09T11:18:11;27.20;52.20
25732;DHT22;13585;50.864;4.406;2022-09-09T11:20:38;27.30;52.40
25732;DHT22;13585;50.864;4.406;2022-09-09T11:23:18;27.30;52.50
25732;DHT22;13585;50.864;4.406;2022-09-09T11:25:59;27.20;53.10
25732;DHT22;13585;50.864;4.406;2022-09-09T11:28:51;27.20;52.50
25732;DHT22;13585;50.864;4.406;2022-09-09T11:34:08;27.30;53.20
25732;DHT22;13585;50.864;4.406;2022-09-09T11:37:04;27.30;52.60
25732;DHT22;13585;50.864;4.406;2022-09-09T11:42:21;27.30;52.80
25732;DHT22;13585;50.864;4.406;2022-09-09T11:44:48;27.30;52.90
25732;DHT22;13585;50.864;4.406;2022-09-09T11:50:39;27.30;53.20
25732;DHT22;13585;50.864;4.406;2022-09-09T11:53:18;27.40;53.30
25732;DHT22;13585;50.864;4.406;2022-09-09T11:55:46;27.30;53.30
25732;DHT22;13585;50.864;4.406;2022-09-09T12:00:41;27.30;53.40
25732;DHT22;13585;50.864;4.406;2022-09-09T12:06:08;27.30;53.40
25732;DHT22;13585;50.864;4.406;2022-09-09T12:08:55;27.30;53.20
25732;DHT22;13585;50.864;4.406;2022-09-09T12:17:17;27.30;53.20
25732;DHT22;13585;50.864;4.406;2022-09-09T12:20:19;27.30;53.20
25732;DHT22;13585;50.864;4.406;2022-09-09T12:28:27;27.20;53.30
25732;DHT22;13585;50.864;4.406;2022-09-09T12:31:31;27.20;53.20
25732;DHT22;13585;50.864;4.406;2022-09-09T12:36:55;27.30;53.40
25732;DHT22;13585;50.864;4.406;2022-09-09T12:39:59;27.20;53.20
25732;DHT22;13585;50.864;4.406;2022-09-09T12:42:52;27.20;53.30
25732;DHT22;13585;50.864;4.406;2022-09-09T12:45:25;27.20;53.30
25732;DHT22;13585;50.864;4.406;2022-09-09T12:50:32;27.20;53.10
25732;DHT22;13585;50.864;4.406;2022-09-09T12:53:31;27.30;53.20
25732;DHT22;13585;50.864;4.406;2022-09-09T12:56:44;27.30;53.30
25732;DHT22;13585;50.864;4.406;2022-09-09T13:02:27;27.20;53.20
25732;DHT22;13585;50.864;4.406;2022-09-09T13:05:13;27.30;53.10
25732;DHT22;13585;50.864;4.406;2022-09-09T13:11:28;27.20;53.00
25732;DHT22;13585;50.864;4.406;2022-09-09T13:13:57;27.30;52.90
25732;DHT22;13585;50.864;4.406;2022-09-09T13:16:27;27.20;52.80
25732;DHT22;13585;50.864;4.406;2022-09-09T13:19:08;27.20;52.80
25732;DHT22;13585;50.864;4.406;2022-09-09T13:21:46;27.20;52.70
25732;DHT22;13585;50.864;4.406;2022-09-09T13:24:33;27.20;52.70
25732;DHT22;13585;50.864;4.406;2022-09-09T13:27:19;27.20;52.60
25732;DHT22;13585;50.864;4.406;2022-09-09T13:33:04;27.30;52.50
25732;DHT22;13585;50.864;4.406;2022-09-09T13:35:30;27.30;52.50
25732;DHT22;13585;50.864;4.406;2022-09-09T13:37:58;27.20;52.50
25732;DHT22;13585;50.864;4.406;2022-09-09T13:40:24;27.20;52.40
25732;DHT22;13585;50.864;4.406;2022-09-09T13:42:56;27.20;52.40
25732;DHT22;13585;50.864;4.406;2022-09-09T13:45:38;27.20;52.40
25732;DHT22;13585;50.864;4.406;2022-09-09T13:48:21;27.10;52.50
25732;DHT22;13585;50.864;4.406;2022-09-09T13:50:58;27.20;52.50
25732;DHT22;13585;50.864;4.406;2022-09-09T13:53:30;27.20;52.30
25732;DHT22;13585;50.864;4.406;2022-09-09T13:55:57;27.20;52.20
25732;DHT22;13585;50.864;4.406;2022-09-09T13:58:24;27.30;52.30
25732;DHT22;13585;50.864;4.406;2022-09-09T14:00:52;27.20;52.30
25732;DHT22;13585;50.864;4.406;2022-09-09T14:03:18;27.20;52.30
25732;DHT22;13585;50.864;4.406;2022-09-09T14:05:44;27.20;52.30
25732;DHT22;13585;50.864;4.406;2022-09-09T14:08:17;27.20;52.30
25732;DHT22;13585;50.864;4.406;2022-09-09T14:10:45;27.20;52.50
25732;DHT22;13585;50.864;4.406;2022-09-09T14:13:10;27.20;52.40
25732;DHT22;13585;50.864;4.406;2022-09-09T14:15:37;27.30;52.50
25732;DHT22;13585;50.864;4.406;2022-09-09T14:18:03;27.30;52.50
25732;DHT22;13585;50.864;4.406;2022-09-09T14:20:29;27.20;52.50
25732;DHT22;13585;50.864;4.406;2022-09-09T14:22:55;27.30;52.70
25732;DHT22;13585;50.864;4.406;2022-09-09T14:25:23;27.30;52.60
25732;DHT22;13585;50.864;4.406;2022-09-09T14:27:49;27.20;53.30
25732;DHT22;13585;50.864;4.406;2022-09-09T14:30:16;27.30;52.70
25732;DHT22;13585;50.864;4.406;2022-09-09T14:32:42;27.30;52.70
25732;DHT22;13585;50.864;4.406;2022-09-09T14:35:08;27.30;52.60
25732;DHT22;13585;50.864;4.406;2022-09-09T14:37:34;27.20;52.50
25732;DHT22;13585;50.864;4.406;2022-09-09T14:40:18;27.30;52.50
25732;DHT22;13585;50.864;4.406;2022-09-09T14:42:44;27.20;52.50
25732;DHT22;13585;50.864;4.406;2022-09-09T14:45:29;27.30;52.60
25732;DHT22;13585;50.864;4.406;2022-09-09T14:47:55;27.30;52.80
25732;DHT22;13585;50.864;4.406;2022-09-09T14:50:22;27.30;52.80
25732;DHT22;13585;50.864;4.406;2022-09-09T14:52:57;27.30;52.90
25732;DHT22;13585;50.864;4.406;2022-09-09T14:55:28;27.20;53.00
25732;DHT22;13585;50.864;4.406;2022-09-09T14:57:54;27.30;53.20
25732;DHT22;13585;50.864;4.406;2022-09-09T15:00:24;27.30;53.30
25732;DHT22;13585;50.864;4.406;2022-09-09T15:02:53;27.30;53.30
25732;DHT22;13585;50.864;4.406;2022-09-09T15:05:22;27.20;53.40
25732;DHT22;13585;50.864;4.406;2022-09-09T15:07:48;27.30;53.50
25732;DHT22;13585;50.864;4.406;2022-09-09T15:10:14;27.20;53.70
25732;DHT22;13585;50.864;4.406;2022-09-09T15:12:43;27.30;53.90
25732;DHT22;13585;50.864;4.406;2022-09-09T15:15:27;27.30;53.90
25732;DHT22;13585;50.864;4.406;2022-09-09T15:17:53;27.30;54.10
25732;DHT22;13585;50.864;4.406;2022-09-09T15:20:19;27.30;54.10
25732;DHT22;13585;50.864;4.406;2022-09-09T15:22:47;27.20;54.00
25732;DHT22;13585;50.864;4.406;2022-09-09T15:25:18;27.30;54.10
25732;DHT22;13585;50.864;4.406;2022-09-09T15:27:44;27.20;54.10
25732;DHT22;13585;50.864;4.406;2022-09-09T15:30:10;27.20;54.10
25732;DHT22;13585;50.864;4.406;2022-09-09T15:32:42;27.30;54.20
25732;DHT22;13585;50.864;4.406;2022-09-09T15:35:17;27.20;54.20
25732;DHT22;13585;50.864;4.406;2022-09-09T15:37:43;27.30;54.30
25732;DHT22;13585;50.864;4.406;2022-09-09T15:40:10;27.30;54.10
25732;DHT22;13585;50.864;4.406;2022-09-09T15:42:36;27.20;54.00
25732;DHT22;13585;50.864;4.406;2022-09-09T15:45:02;27.30;54.00
25732;DHT22;13585;50.864;4.406;2022-09-09T15:47:33;27.30;53.90
25732;DHT22;13585;50.864;4.406;2022-09-09T15:50:02;27.20;53.80
25732;DHT22;13585;50.864;4.406;2022-09-09T15:52:31;27.30;53.80
25732;DHT22;13585;50.864;4.406;2022-09-09T15:54:57;27.30;53.70
25732;DHT22;13585;50.864;4.406;2022-09-09T15:57:25;27.30;53.60
25732;DHT22;13585;50.864;4.406;2022-09-09T15:59:54;27.30;54.20
25732;DHT22;13585;50.864;4.406;2022-09-09T16:02:20;27.30;53.50
25732;DHT22;13585;50.864;4.406;2022-09-09T16:04:46;27.30;53.40
25732;DHT22;13585;50.864;4.406;2022-09-09T16:07:12;27.30;53.40
25732;DHT22;13585;50.864;4.406;2022-09-09T16:09:45;27.30;53.30
25732;DHT22;13585;50.864;4.406;2022-09-09T16:12:19;27.20;53.30
25732;DHT22;13585;50.864;4.406;2022-09-09T16:14:45;27.30;53.30
25732;DHT22;13585;50.864;4.406;2022-09-09T16:17:11;27.30;53.30
25732;DHT22;13585;50.864;4.406;2022-09-09T16:19:37;27.20;53.40
25732;DHT22;13585;50.864;4.406;2022-09-09T16:22:04;27.30;53.60
25732;DHT22;13585;50.864;4.406;2022-09-09T16:24:30;27.30;53.60
25732;DHT22;13585;50.864;4.406;2022-09-09T16:26:56;27.20;53.70
25732;DHT22;13585;50.864;4.406;2022-09-09T16:29:22;27.20;53.70
25732;DHT22;13585;50.864;4.406;2022-09-09T16:31:49;27.20;53.70
25732;DHT22;13585;50.864;4.406;2022-09-09T16:34:17;27.20;53.60
25732;DHT22;13585;50.864;4.406;2022-09-09T16:36:44;27.20;53.50
25732;DHT22;13585;50.864;4.406;2022-09-09T16:39:12;27.20;53.40
25732;DHT22;13585;50.864;4.406;2022-09-09T16:41:39;27.20;53.40
25732;DHT22;13585;50.864;4.406;2022-09-09T16:44:08;27.30;53.40
25732;DHT22;13585;50.864;4.406;2022-09-09T16:46:40;27.30;53.40
25732;DHT22;13585;50.864;4.406;2022-09-09T16:49:11;27.20;53.20
25732;DHT22;13585;50.864;4.406;2022-09-09T16:51:43;27.20;53.10
25732;DHT22;13585;50.864;4.406;2022-09-09T16:54:10;27.20;53.00
25732;DHT22;13585;50.864;4.406;2022-09-09T16:56:39;27.30;52.90
25732;DHT22;13585;50.864;4.406;2022-09-09T16:59:15;27.20;52.90
25732;DHT22;13585;50.864;4.406;2022-09-09T17:01:43;27.20;52.80
25732;DHT22;13585;50.864;4.406;2022-09-09T17:04:12;27.20;53.50
25732;DHT22;13585;50.864;4.406;2022-09-09T17:06:39;27.20;52.70
25732;DHT22;13585;50.864;4.406;2022-09-09T17:09:09;27.20;52.70
25732;DHT22;13585;50.864;4.406;2022-09-09T17:11:36;27.20;52.70
25732;DHT22;13585;50.864;4.406;2022-09-09T17:14:18;27.20;52.70
25732;DHT22;13585;50.864;4.406;2022-09-09T17:20:48;27.20;52.90
25732;DHT22;13585;50.864;4.406;2022-09-09T17:23:23;27.20;52.80
25732;DHT22;13585;50.864;4.406;2022-09-09T17:25:58;27.20;52.90
25732;DHT22;13585;50.864;4.406;2022-09-09T17:28:26;27.20;52.90
25732;DHT22;13585;50.864;4.406;2022-09-09T17:30:59;27.20;52.90
25732;DHT22;13585;50.864;4.406;2022-09-09T17:33:28;27.20;52.90
25732;DHT22;13585;50.864;4.406;2022-09-09T17:36:01;27.20;53.00
25732;DHT22;13585;50.864;4.406;2022-09-09T17:38:28;27.20;52.90
25732;DHT22;13585;50.864;4.406;2022-09-09T17:41:05;27.20;52.90
25732;DHT22;13585;50.864;4.406;2022-09-09T17:43:37;27.20;53.10
25732;DHT22;13585;50.864;4.406;2022-09-09T17:48:39;27.20;52.90
25732;DHT22;13585;50.864;4.406;2022-09-09T17:51:08;27.20;52.90
25732;DHT22;13585;50.864;4.406;2022-09-09T17:53:38;27.10;52.90
25732;DHT22;13585;50.864;4.406;2022-09-09T17:56:06;27.10;52.90
25732;DHT22;13585;50.864;4.406;2022-09-09T17:58:34;27.10;52.80
25732;DHT22;13585;50.864;4.406;2022-09-09T18:01:14;27.10;52.90
25732;DHT22;13585;50.864;4.406;2022-09-09T18:03:41;27.10;52.90
25732;DHT22;13585;50.864;4.406;2022-09-09T18:06:13;27.10;52.80
25732;DHT22;13585;50.864;4.406;2022-09-09T18:08:41;27.10;52.80
25732;DHT22;13585;50.864;4.406;2022-09-09T18:11:08;27.10;52.80